sensor_id;sensor_type;location;lat;lon;timestamp;P1;P2;P0
73517;PMS5003;61766;60.318;25.044;2024-03-23T00:52:30;5;5;
73517;PMS5003;61766;60.318;25.044;2024-03-23T00:54:55;7;7;
73517;PMS5003;61766;60.318;25.044;2024-03-23T00:57:20;5;5;
73517;PMS5003;61766;60.318;25.044;2024-03-23T00:59:45;5;5;
73517;PMS5003;61766;60.318;25.044;2024-03-23T01:02:10;5;5;
73517;PMS5003;61766;60.318;25.044;2024-03-23T01:04:36;4;4;
73517;PMS5003;61766;60.318;25.044;2024-03-23T01:07:01;5;4;
73517;PMS5003;61766;60.318;25.044;2024-03-23T01:09:26;9;8;
73517;PMS5003;61766;60.318;25.044;2024-03-23T01:11:51;5;5;
73517;PMS5003;61766;60.318;25.044;2024-03-23T01:14:16;7;6;
73517;PMS5003;61766;60.318;25.044;2024-03-23T01:16:41;8;7;
73517;PMS5003;61766;60.318;25.044;2024-03-23T01:19:06;6;5;
73517;PMS5003;61766;60.318;25.044;2024-03-23T01:21:32;7;7;
73517;PMS5003;61766;60.318;25.044;2024-03-23T01:23:57;4;4;
73517;PMS5003;61766;60.318;25.044;2024-03-23T01:26:22;5;5;
73517;PMS5003;61766;60.318;25.044;2024-03-23T01:28:47;7;7;
73517;PMS5003;61766;60.318;25.044;2024-03-23T01:31:12;4;4;
73517;PMS5003;61766;60.318;25.044;2024-03-23T01:33:37;5;5;
73517;PMS5003;61766;60.318;25.044;2024-03-23T01:36:03;6;6;
73517;PMS5003;61766;60.318;25.044;2024-03-23T01:38:27;3;3;
73517;PMS5003;61766;60.318;25.044;2024-03-23T01:40:56;6;6;
73517;PMS5003;61766;60.318;25.044;2024-03-23T01:43:18;4;4;
73517;PMS5003;61766;60.318;25.044;2024-03-23T01:45:43;6;6;
73517;PMS5003;61766;60.318;25.044;2024-03-23T01:48:08;5;5;
73517;PMS5003;61766;60.318;25.044;2024-03-23T01:50:38;6;6;
73517;PMS5003;61766;60.318;25.044;2024-03-23T01:52:59;5;5;
73517;PMS5003;61766;60.318;25.044;2024-03-23T01:55:24;7;7;
73517;PMS5003;61766;60.318;25.044;2024-03-23T01:57:49;4;4;
73517;PMS5003;61766;60.318;25.044;2024-03-23T02:00:14;7;6;
73517;PMS5003;61766;60.318;25.044;2024-03-23T02:02:41;8;7;
73517;PMS5003;61766;60.318;25.044;2024-03-23T02:05:05;7;6;
73517;PMS5003;61766;60.318;25.044;2024-03-23T02:07:30;6;6;
73517;PMS5003;61766;60.318;25.044;2024-03-23T02:09:56;5;5;
73517;PMS5003;61766;60.318;25.044;2024-03-23T02:12:21;6;6;
73517;PMS5003;61766;60.318;25.044;2024-03-23T02:14:46;5;5;
73517;PMS5003;61766;60.318;25.044;2024-03-23T02:17:11;5;5;
73517;PMS5003;61766;60.318;25.044;2024-03-23T02:19:36;5;3;
73517;PMS5003;61766;60.318;25.044;2024-03-23T02:22:01;4;4;
73517;PMS5003;61766;60.318;25.044;2024-03-23T02:24:28;6;4;
73517;PMS5003;61766;60.318;25.044;2024-03-23T02:26:51;5;5;
73517;PMS5003;61766;60.318;25.044;2024-03-23T02:29:17;3;3;
73517;PMS5003;61766;60.318;25.044;2024-03-23T02:31:42;3;3;
73517;PMS5003;61766;60.318;25.044;2024-03-23T02:34:07;3;3;
73517;PMS5003;61766;60.318;25.044;2024-03-23T02:36:32;2;2;
73517;PMS5003;61766;60.318;25.044;2024-03-23T02:38:57;4;3;
73517;PMS5003;61766;60.318;25.044;2024-03-23T02:41:22;4;4;
73517;PMS5003;61766;60.318;25.044;2024-03-23T02:43:48;4;4;
73517;PMS5003;61766;60.318;25.044;2024-03-23T02:46:13;3;3;
73517;PMS5003;61766;60.318;25.044;2024-03-23T02:48:38;3;3;
73517;PMS5003;61766;60.318;25.044;2024-03-23T02:51:03;3;3;
73517;PMS5003;61766;60.318;25.044;2024-03-23T02:53:28;3;3;
73517;PMS5003;61766;60.318;25.044;2024-03-23T02:58:18;3;3;
73517;PMS5003;61766;60.318;25.044;2024-03-23T03:00:43;5;4;
73517;PMS5003;61766;60.318;25.044;2024-03-23T03:03:09;2;2;
73517;PMS5003;61766;60.318;25.044;2024-03-23T03:05:34;3;2;
73517;PMS5003;61766;60.318;25.044;2024-03-23T03:07:59;3;3;
73517;PMS5003;61766;60.318;25.044;2024-03-23T03:10:24;3;3;
73517;PMS5003;61766;60.318;25.044;2024-03-23T03:12:49;4;4;
73517;PMS5003;61766;60.318;25.044;2024-03-23T03:15:14;3;3;
73517;PMS5003;61766;60.318;25.044;2024-03-23T03:17:39;2;2;
73517;PMS5003;61766;60.318;25.044;2024-03-23T03:20:05;3;3;
73517;PMS5003;61766;60.318;25.044;2024-03-23T03:22:30;3;3;
73517;PMS5003;61766;60.318;25.044;2024-03-23T03:24:55;4;3;
73517;PMS5003;61766;60.318;25.044;2024-03-23T03:27:20;4;4;
73517;PMS5003;61766;60.318;25.044;2024-03-23T03:29:45;4;4;
73517;PMS5003;61766;60.318;25.044;2024-03-23T03:39:26;4;4;
73517;PMS5003;61766;60.318;25.044;2024-03-23T03:41:51;2;2;
73517;PMS5003;61766;60.318;25.044;2024-03-23T03:44:17;3;3;
73517;PMS5003;61766;60.318;25.044;2024-03-23T03:46:41;3;3;
73517;PMS5003;61766;60.318;25.044;2024-03-23T03:49:07;4;4;
73517;PMS5003;61766;60.318;25.044;2024-03-23T03:51:31;4;3;
73517;PMS5003;61766;60.318;25.044;2024-03-23T03:53:57;3;3;
73517;PMS5003;61766;60.318;25.044;2024-03-23T03:56:22;4;4;
73517;PMS5003;61766;60.318;25.044;2024-03-23T03:58:47;3;3;
73517;PMS5003;61766;60.318;25.044;2024-03-23T04:01:12;3;3;
73517;PMS5003;61766;60.318;25.044;2024-03-23T04:03:37;2;2;
73517;PMS5003;61766;60.318;25.044;2024-03-23T04:06:02;3;3;
73517;PMS5003;61766;60.318;25.044;2024-03-23T04:08:27;4;4;
73517;PMS5003;61766;60.318;25.044;2024-03-23T04:10:53;2;2;
73517;PMS5003;61766;60.318;25.044;2024-03-23T04:13:18;3;3;
73517;PMS5003;61766;60.318;25.044;2024-03-23T04:15:43;4;4;
73517;PMS5003;61766;60.318;25.044;2024-03-23T04:18:08;3;3;
73517;PMS5003;61766;60.318;25.044;2024-03-23T04:20:33;3;3;
73517;PMS5003;61766;60.318;25.044;2024-03-23T04:22:59;3;3;
73517;PMS5003;61766;60.318;25.044;2024-03-23T04:25:24;3;3;
73517;PMS5003;61766;60.318;25.044;2024-03-23T04:27:50;3;3;
73517;PMS5003;61766;60.318;25.044;2024-03-23T04:30:15;4;4;
73517;PMS5003;61766;60.318;25.044;2024-03-23T04:32:40;3;3;
73517;PMS5003;61766;60.318;25.044;2024-03-23T04:35:06;3;3;
73517;PMS5003;61766;60.318;25.044;2024-03-23T04:37:31;3;3;
73517;PMS5003;61766;60.318;25.044;2024-03-23T04:39:56;3;3;
73517;PMS5003;61766;60.318;25.044;2024-03-23T04:42:21;2;2;
73517;PMS5003;61766;60.318;25.044;2024-03-23T04:44:46;2;2;
73517;PMS5003;61766;60.318;25.044;2024-03-23T04:47:12;2;2;
73517;PMS5003;61766;60.318;25.044;2024-03-23T04:49:36;2;2;
73517;PMS5003;61766;60.318;25.044;2024-03-23T04:54:27;2;2;
73517;PMS5003;61766;60.318;25.044;2024-03-23T04:56:52;3;3;
73517;PMS5003;61766;60.318;25.044;2024-03-23T04:59:17;2;2;
73517;PMS5003;61766;60.318;25.044;2024-03-23T05:01:42;2;2;
73517;PMS5003;61766;60.318;25.044;2024-03-23T05:04:07;2;2;
73517;PMS5003;61766;60.318;25.044;2024-03-23T05:06:32;3;2;
73517;PMS5003;61766;60.318;25.044;2024-03-23T05:08:57;2;2;
73517;PMS5003;61766;60.318;25.044;2024-03-23T05:11:22;2;2;
73517;PMS5003;61766;60.318;25.044;2024-03-23T05:13:48;2;2;
73517;PMS5003;61766;60.318;25.044;2024-03-23T05:16:13;3;3;
73517;PMS5003;61766;60.318;25.044;2024-03-23T05:18:38;2;2;
73517;PMS5003;61766;60.318;25.044;2024-03-23T05:21:03;2;2;
73517;PMS5003;61766;60.318;25.044;2024-03-23T05:23:29;2;2;
73517;PMS5003;61766;60.318;25.044;2024-03-23T05:25:53;2;2;
73517;PMS5003;61766;60.318;25.044;2024-03-23T05:28:18;1;1;
73517;PMS5003;61766;60.318;25.044;2024-03-23T05:30:44;2;1;
73517;PMS5003;61766;60.318;25.044;2024-03-23T05:33:09;1;1;
73517;PMS5003;61766;60.318;25.044;2024-03-23T05:35:34;4;3;
73517;PMS5003;61766;60.318;25.044;2024-03-23T05:38:00;2;2;
73517;PMS5003;61766;60.318;25.044;2024-03-23T05:40:25;3;3;
73517;PMS5003;61766;60.318;25.044;2024-03-23T05:42:50;3;3;
73517;PMS5003;61766;60.318;25.044;2024-03-23T05:45:15;1;1;
73517;PMS5003;61766;60.318;25.044;2024-03-23T05:47:41;2;2;
73517;PMS5003;61766;60.318;25.044;2024-03-23T05:50:05;2;2;
73517;PMS5003;61766;60.318;25.044;2024-03-23T05:52:30;3;3;
73517;PMS5003;61766;60.318;25.044;2024-03-23T05:54:56;2;2;
73517;PMS5003;61766;60.318;25.044;2024-03-23T05:57:21;4;3;
73517;PMS5003;61766;60.318;25.044;2024-03-23T05:59:46;2;2;
73517;PMS5003;61766;60.318;25.044;2024-03-23T06:02:11;3;3;
73517;PMS5003;61766;60.318;25.044;2024-03-23T06:04:36;4;3;
73517;PMS5003;61766;60.318;25.044;2024-03-23T06:07:02;2;2;
73517;PMS5003;61766;60.318;25.044;2024-03-23T06:09:32;4;4;
73517;PMS5003;61766;60.318;25.044;2024-03-23T06:11:52;2;2;
73517;PMS5003;61766;60.318;25.044;2024-03-23T06:14:17;3;3;
73517;PMS5003;61766;60.318;25.044;2024-03-23T06:16:42;3;3;
73517;PMS5003;61766;60.318;25.044;2024-03-23T06:19:07;3;3;
73517;PMS5003;61766;60.318;25.044;2024-03-23T06:21:32;3;3;
73517;PMS5003;61766;60.318;25.044;2024-03-23T06:23:57;2;2;
73517;PMS5003;61766;60.318;25.044;2024-03-23T06:26:22;2;2;
73517;PMS5003;61766;60.318;25.044;2024-03-23T06:28:47;3;3;
73517;PMS5003;61766;60.318;25.044;2024-03-23T06:31:13;3;3;
73517;PMS5003;61766;60.318;25.044;2024-03-23T06:33:38;1;1;
73517;PMS5003;61766;60.318;25.044;2024-03-23T06:36:03;4;3;
73517;PMS5003;61766;60.318;25.044;2024-03-23T06:38:28;3;3;
73517;PMS5003;61766;60.318;25.044;2024-03-23T06:40:53;4;3;
73517;PMS5003;61766;60.318;25.044;2024-03-23T06:43:18;3;3;
73517;PMS5003;61766;60.318;25.044;2024-03-23T06:45:43;3;3;
73517;PMS5003;61766;60.318;25.044;2024-03-23T06:48:08;2;2;
73517;PMS5003;61766;60.318;25.044;2024-03-23T06:50:33;2;2;
73517;PMS5003;61766;60.318;25.044;2024-03-23T06:52:58;3;3;
73517;PMS5003;61766;60.318;25.044;2024-03-23T06:55:23;3;3;
73517;PMS5003;61766;60.318;25.044;2024-03-23T06:57:49;3;3;
73517;PMS5003;61766;60.318;25.044;2024-03-23T07:00:14;3;3;
73517;PMS5003;61766;60.318;25.044;2024-03-23T07:02:40;3;3;
73517;PMS5003;61766;60.318;25.044;2024-03-23T07:05:06;3;3;
73517;PMS5003;61766;60.318;25.044;2024-03-23T07:07:29;3;3;
73517;PMS5003;61766;60.318;25.044;2024-03-23T07:09:54;3;3;
73517;PMS5003;61766;60.318;25.044;2024-03-23T07:12:19;3;3;
73517;PMS5003;61766;60.318;25.044;2024-03-23T07:14:44;2;2;
73517;PMS5003;61766;60.318;25.044;2024-03-23T07:19:36;3;3;
73517;PMS5003;61766;60.318;25.044;2024-03-23T07:22:00;3;3;
73517;PMS5003;61766;60.318;25.044;2024-03-23T07:24:25;4;4;
73517;PMS5003;61766;60.318;25.044;2024-03-23T07:26:50;3;3;
73517;PMS5003;61766;60.318;25.044;2024-03-23T07:29:15;3;3;
73517;PMS5003;61766;60.318;25.044;2024-03-23T07:31:40;3;3;
73517;PMS5003;61766;60.318;25.044;2024-03-23T07:34:05;3;3;
73517;PMS5003;61766;60.318;25.044;2024-03-23T07:36:30;3;3;
73517;PMS5003;61766;60.318;25.044;2024-03-23T07:38:55;2;2;
73517;PMS5003;61766;60.318;25.044;2024-03-23T07:41:20;3;3;
73517;PMS5003;61766;60.318;25.044;2024-03-23T07:43:46;2;2;
73517;PMS5003;61766;60.318;25.044;2024-03-23T07:46:11;2;2;
73517;PMS5003;61766;60.318;25.044;2024-03-23T07:48:36;2;2;
73517;PMS5003;61766;60.318;25.044;2024-03-23T07:51:01;1;1;
73517;PMS5003;61766;60.318;25.044;2024-03-23T07:53:26;1;1;
73517;PMS5003;61766;60.318;25.044;2024-03-23T07:55:53;3;3;
73517;PMS5003;61766;60.318;25.044;2024-03-23T07:58:16;2;2;
73517;PMS5003;61766;60.318;25.044;2024-03-23T08:03:06;3;3;
73517;PMS5003;61766;60.318;25.044;2024-03-23T08:07:57;3;3;
73517;PMS5003;61766;60.318;25.044;2024-03-23T08:10:21;2;2;
73517;PMS5003;61766;60.318;25.044;2024-03-23T08:12:47;3;3;
73517;PMS5003;61766;60.318;25.044;2024-03-23T08:15:12;2;2;
73517;PMS5003;61766;60.318;25.044;2024-03-23T08:17:37;2;2;
73517;PMS5003;61766;60.318;25.044;2024-03-23T08:20:02;2;2;
73517;PMS5003;61766;60.318;25.044;2024-03-23T08:22:27;4;4;
73517;PMS5003;61766;60.318;25.044;2024-03-23T08:24:52;1;1;
73517;PMS5003;61766;60.318;25.044;2024-03-23T08:27:17;3;3;
73517;PMS5003;61766;60.318;25.044;2024-03-23T08:29:45;3;3;
73517;PMS5003;61766;60.318;25.044;2024-03-23T08:32:07;4;3;
73517;PMS5003;61766;60.318;25.044;2024-03-23T08:34:32;1;1;
73517;PMS5003;61766;60.318;25.044;2024-03-23T08:39:23;3;3;
73517;PMS5003;61766;60.318;25.044;2024-03-23T08:41:48;2;2;
73517;PMS5003;61766;60.318;25.044;2024-03-23T08:44:13;2;1;
73517;PMS5003;61766;60.318;25.044;2024-03-23T08:46:38;3;2;
73517;PMS5003;61766;60.318;25.044;2024-03-23T08:49:03;1;1;
73517;PMS5003;61766;60.318;25.044;2024-03-23T08:51:28;1;1;
73517;PMS5003;61766;60.318;25.044;2024-03-23T08:53:53;2;2;
73517;PMS5003;61766;60.318;25.044;2024-03-23T08:56:18;1;1;
73517;PMS5003;61766;60.318;25.044;2024-03-23T08:58:43;3;3;
73517;PMS5003;61766;60.318;25.044;2024-03-23T09:01:09;0;0;
73517;PMS5003;61766;60.318;25.044;2024-03-23T09:03:33;2;2;
73517;PMS5003;61766;60.318;25.044;2024-03-23T09:05:58;3;3;
73517;PMS5003;61766;60.318;25.044;2024-03-23T09:08:23;3;3;
73517;PMS5003;61766;60.318;25.044;2024-03-23T09:10:48;2;2;
73517;PMS5003;61766;60.318;25.044;2024-03-23T09:13:13;3;3;
73517;PMS5003;61766;60.318;25.044;2024-03-23T09:15:46;2;2;
73517;PMS5003;61766;60.318;25.044;2024-03-23T09:18:04;2;2;
73517;PMS5003;61766;60.318;25.044;2024-03-23T09:20:28;1;1;
73517;PMS5003;61766;60.318;25.044;2024-03-23T09:22:53;3;3;
73517;PMS5003;61766;60.318;25.044;2024-03-23T09:25:18;2;2;
73517;PMS5003;61766;60.318;25.044;2024-03-23T09:27:45;3;2;
73517;PMS5003;61766;60.318;25.044;2024-03-23T09:30:09;3;3;
73517;PMS5003;61766;60.318;25.044;2024-03-23T09:32:33;3;3;
73517;PMS5003;61766;60.318;25.044;2024-03-23T09:34:58;4;4;
73517;PMS5003;61766;60.318;25.044;2024-03-23T09:37:23;2;2;
73517;PMS5003;61766;60.318;25.044;2024-03-23T09:39:48;3;3;
73517;PMS5003;61766;60.318;25.044;2024-03-23T09:42:13;2;2;
73517;PMS5003;61766;60.318;25.044;2024-03-23T09:44:38;2;2;
73517;PMS5003;61766;60.318;25.044;2024-03-23T09:47:03;3;3;
73517;PMS5003;61766;60.318;25.044;2024-03-23T09:51:54;3;3;
73517;PMS5003;61766;60.318;25.044;2024-03-23T09:54:19;4;4;
73517;PMS5003;61766;60.318;25.044;2024-03-23T09:56:44;4;2;
73517;PMS5003;61766;60.318;25.044;2024-03-23T09:59:09;3;3;
73517;PMS5003;61766;60.318;25.044;2024-03-23T10:01:36;2;2;
73517;PMS5003;61766;60.318;25.044;2024-03-23T10:03:59;4;4;
73517;PMS5003;61766;60.318;25.044;2024-03-23T10:06:25;4;3;
73517;PMS5003;61766;60.318;25.044;2024-03-23T10:08:50;4;4;
73517;PMS5003;61766;60.318;25.044;2024-03-23T10:11:15;2;2;
73517;PMS5003;61766;60.318;25.044;2024-03-23T10:13:40;3;3;
73517;PMS5003;61766;60.318;25.044;2024-03-23T10:16:05;3;3;
73517;PMS5003;61766;60.318;25.044;2024-03-23T10:18:30;4;3;
73517;PMS5003;61766;60.318;25.044;2024-03-23T10:23:22;3;3;
73517;PMS5003;61766;60.318;25.044;2024-03-23T10:28:11;3;3;
73517;PMS5003;61766;60.318;25.044;2024-03-23T10:30:36;3;3;
73517;PMS5003;61766;60.318;25.044;2024-03-23T10:35:26;3;3;
73517;PMS5003;61766;60.318;25.044;2024-03-23T10:37:51;2;2;
73517;PMS5003;61766;60.318;25.044;2024-03-23T10:40:16;3;3;
73517;PMS5003;61766;60.318;25.044;2024-03-23T10:42:41;4;4;
73517;PMS5003;61766;60.318;25.044;2024-03-23T10:45:07;2;2;
73517;PMS5003;61766;60.318;25.044;2024-03-23T10:47:31;3;3;
73517;PMS5003;61766;60.318;25.044;2024-03-23T10:49:56;3;2;
73517;PMS5003;61766;60.318;25.044;2024-03-23T10:52:21;3;3;
73517;PMS5003;61766;60.318;25.044;2024-03-23T10:54:46;3;3;
73517;PMS5003;61766;60.318;25.044;2024-03-23T10:57:14;3;3;
73517;PMS5003;61766;60.318;25.044;2024-03-23T10:59:37;2;2;
73517;PMS5003;61766;60.318;25.044;2024-03-23T11:02:02;4;4;
73517;PMS5003;61766;60.318;25.044;2024-03-23T11:04:30;1;1;
73517;PMS5003;61766;60.318;25.044;2024-03-23T11:06:52;3;3;
73517;PMS5003;61766;60.318;25.044;2024-03-23T11:11:42;3;3;
73517;PMS5003;61766;60.318;25.044;2024-03-23T11:14:12;4;4;
73517;PMS5003;61766;60.318;25.044;2024-03-23T11:16:32;4;4;
73517;PMS5003;61766;60.318;25.044;2024-03-23T11:23:47;3;2;
73517;PMS5003;61766;60.318;25.044;2024-03-23T11:26:12;3;3;
73517;PMS5003;61766;60.318;25.044;2024-03-23T11:28:38;2;2;
73517;PMS5003;61766;60.318;25.044;2024-03-23T11:33:29;3;3;
73517;PMS5003;61766;60.318;25.044;2024-03-23T11:35:55;2;2;
73517;PMS5003;61766;60.318;25.044;2024-03-23T11:38:21;2;2;
73517;PMS5003;61766;60.318;25.044;2024-03-23T11:43:13;3;3;
73517;PMS5003;61766;60.318;25.044;2024-03-23T11:45:47;3;3;
73517;PMS5003;61766;60.318;25.044;2024-03-23T11:48:05;5;4;
73517;PMS5003;61766;60.318;25.044;2024-03-23T11:50:29;3;2;
73517;PMS5003;61766;60.318;25.044;2024-03-23T11:55:19;3;3;
73517;PMS5003;61766;60.318;25.044;2024-03-23T11:57:45;2;2;
73517;PMS5003;61766;60.318;25.044;2024-03-23T12:02:34;4;4;
73517;PMS5003;61766;60.318;25.044;2024-03-23T12:07:24;3;3;
73517;PMS5003;61766;60.318;25.044;2024-03-23T12:12:15;1;1;
73517;PMS5003;61766;60.318;25.044;2024-03-23T12:14:39;3;3;
73517;PMS5003;61766;60.318;25.044;2024-03-23T12:17:09;2;2;
73517;PMS5003;61766;60.318;25.044;2024-03-23T12:19:29;3;3;
73517;PMS5003;61766;60.318;25.044;2024-03-23T12:21:54;4;4;
73517;PMS5003;61766;60.318;25.044;2024-03-23T12:24:19;3;3;
73517;PMS5003;61766;60.318;25.044;2024-03-23T12:26:45;2;2;
73517;PMS5003;61766;60.318;25.044;2024-03-23T12:29:09;3;3;
73517;PMS5003;61766;60.318;25.044;2024-03-23T12:31:35;4;3;
73517;PMS5003;61766;60.318;25.044;2024-03-23T12:34:00;4;4;
73517;PMS5003;61766;60.318;25.044;2024-03-23T12:36:25;3;3;
73517;PMS5003;61766;60.318;25.044;2024-03-23T12:38:50;3;3;
73517;PMS5003;61766;60.318;25.044;2024-03-23T12:41:15;4;4;
73517;PMS5003;61766;60.318;25.044;2024-03-23T12:43:40;3;2;
73517;PMS5003;61766;60.318;25.044;2024-03-23T12:46:05;3;3;
73517;PMS5003;61766;60.318;25.044;2024-03-23T12:48:30;3;3;
73517;PMS5003;61766;60.318;25.044;2024-03-23T12:50:55;2;2;
73517;PMS5003;61766;60.318;25.044;2024-03-23T12:58:10;4;4;
73517;PMS5003;61766;60.318;25.044;2024-03-23T13:00:35;6;5;
73517;PMS5003;61766;60.318;25.044;2024-03-23T13:03:00;5;4;
73517;PMS5003;61766;60.318;25.044;2024-03-23T13:05:26;4;4;
73517;PMS5003;61766;60.318;25.044;2024-03-23T13:07:51;4;4;
73517;PMS5003;61766;60.318;25.044;2024-03-23T13:10:16;4;4;
73517;PMS5003;61766;60.318;25.044;2024-03-23T13:12:41;5;4;
73517;PMS5003;61766;60.318;25.044;2024-03-23T13:15:06;5;5;
73517;PMS5003;61766;60.318;25.044;2024-03-23T13:17:31;3;3;
73517;PMS5003;61766;60.318;25.044;2024-03-23T13:19:56;7;5;
73517;PMS5003;61766;60.318;25.044;2024-03-23T13:22:21;4;4;
73517;PMS5003;61766;60.318;25.044;2024-03-23T13:24:46;4;4;
73517;PMS5003;61766;60.318;25.044;2024-03-23T13:27:11;4;4;
73517;PMS5003;61766;60.318;25.044;2024-03-23T13:29:37;4;3;
73517;PMS5003;61766;60.318;25.044;2024-03-23T13:32:02;4;4;
73517;PMS5003;61766;60.318;25.044;2024-03-23T13:34:30;5;5;
73517;PMS5003;61766;60.318;25.044;2024-03-23T13:36:53;3;3;
73517;PMS5003;61766;60.318;25.044;2024-03-23T13:39:17;2;2;
73517;PMS5003;61766;60.318;25.044;2024-03-23T13:41:43;4;4;
73517;PMS5003;61766;60.318;25.044;2024-03-23T13:44:07;4;4;
73517;PMS5003;61766;60.318;25.044;2024-03-23T13:46:32;4;4;
73517;PMS5003;61766;60.318;25.044;2024-03-23T13:48:57;3;2;
73517;PMS5003;61766;60.318;25.044;2024-03-23T13:51:23;4;4;
73517;PMS5003;61766;60.318;25.044;2024-03-23T13:53:47;4;4;
73517;PMS5003;61766;60.318;25.044;2024-03-23T13:56:13;2;2;
73517;PMS5003;61766;60.318;25.044;2024-03-23T13:58:38;5;5;
73517;PMS5003;61766;60.318;25.044;2024-03-23T14:01:03;6;6;
73517;PMS5003;61766;60.318;25.044;2024-03-23T14:03:28;6;6;
73517;PMS5003;61766;60.318;25.044;2024-03-23T14:05:53;5;5;
73517;PMS5003;61766;60.318;25.044;2024-03-23T14:08:18;4;3;
73517;PMS5003;61766;60.318;25.044;2024-03-23T14:10:43;5;5;
73517;PMS5003;61766;60.318;25.044;2024-03-23T14:15:33;7;7;
73517;PMS5003;61766;60.318;25.044;2024-03-23T14:17:58;7;5;
73517;PMS5003;61766;60.318;25.044;2024-03-23T14:20:29;7;7;
73517;PMS5003;61766;60.318;25.044;2024-03-23T14:22:48;6;6;
73517;PMS5003;61766;60.318;25.044;2024-03-23T14:25:13;5;5;
73517;PMS5003;61766;60.318;25.044;2024-03-23T14:27:38;6;6;
73517;PMS5003;61766;60.318;25.044;2024-03-23T14:30:04;8;7;
73517;PMS5003;61766;60.318;25.044;2024-03-23T14:32:30;4;4;
73517;PMS5003;61766;60.318;25.044;2024-03-23T14:34:54;4;4;
73517;PMS5003;61766;60.318;25.044;2024-03-23T14:37:19;5;5;
73517;PMS5003;61766;60.318;25.044;2024-03-23T14:39:44;6;6;
73517;PMS5003;61766;60.318;25.044;2024-03-23T14:42:09;4;4;
73517;PMS5003;61766;60.318;25.044;2024-03-23T14:46:59;6;6;
73517;PMS5003;61766;60.318;25.044;2024-03-23T14:49:24;6;6;
73517;PMS5003;61766;60.318;25.044;2024-03-23T14:51:50;6;6;
73517;PMS5003;61766;60.318;25.044;2024-03-23T14:54:15;8;7;
73517;PMS5003;61766;60.318;25.044;2024-03-23T14:56:40;6;6;
73517;PMS5003;61766;60.318;25.044;2024-03-23T14:59:05;6;6;
73517;PMS5003;61766;60.318;25.044;2024-03-23T15:01:30;5;5;
73517;PMS5003;61766;60.318;25.044;2024-03-23T15:03:55;5;5;
73517;PMS5003;61766;60.318;25.044;2024-03-23T15:06:20;4;4;
73517;PMS5003;61766;60.318;25.044;2024-03-23T15:08:45;7;6;
73517;PMS5003;61766;60.318;25.044;2024-03-23T15:11:10;5;5;
73517;PMS5003;61766;60.318;25.044;2024-03-23T15:13:36;6;6;
73517;PMS5003;61766;60.318;25.044;2024-03-23T15:16:01;9;8;
73517;PMS5003;61766;60.318;25.044;2024-03-23T15:18:26;9;6;
73517;PMS5003;61766;60.318;25.044;2024-03-23T15:23:17;8;6;
73517;PMS5003;61766;60.318;25.044;2024-03-23T15:25:42;9;7;
73517;PMS5003;61766;60.318;25.044;2024-03-23T15:28:07;5;5;
73517;PMS5003;61766;60.318;25.044;2024-03-23T15:30:32;8;7;
73517;PMS5003;61766;60.318;25.044;2024-03-23T15:32:58;7;7;
73517;PMS5003;61766;60.318;25.044;2024-03-23T15:35:23;8;7;
73517;PMS5003;61766;60.318;25.044;2024-03-23T15:37:49;8;8;
73517;PMS5003;61766;60.318;25.044;2024-03-23T15:40:14;12;10;
73517;PMS5003;61766;60.318;25.044;2024-03-23T15:42:39;5;5;
73517;PMS5003;61766;60.318;25.044;2024-03-23T15:45:06;9;9;
73517;PMS5003;61766;60.318;25.044;2024-03-23T15:47:29;7;7;
73517;PMS5003;61766;60.318;25.044;2024-03-23T15:49:55;6;5;
73517;PMS5003;61766;60.318;25.044;2024-03-23T15:54:46;8;8;
73517;PMS5003;61766;60.318;25.044;2024-03-23T15:59:39;8;8;
73517;PMS5003;61766;60.318;25.044;2024-03-23T16:02:02;5;5;
73517;PMS5003;61766;60.318;25.044;2024-03-23T16:04:27;8;8;
73517;PMS5003;61766;60.318;25.044;2024-03-23T16:06:52;8;6;
73517;PMS5003;61766;60.318;25.044;2024-03-23T16:09:18;10;6;
73517;PMS5003;61766;60.318;25.044;2024-03-23T16:11:43;5;5;
73517;PMS5003;61766;60.318;25.044;2024-03-23T16:14:08;5;5;
73517;PMS5003;61766;60.318;25.044;2024-03-23T16:16:36;8;8;
73517;PMS5003;61766;60.318;25.044;2024-03-23T16:18:59;5;5;
73517;PMS5003;61766;60.318;25.044;2024-03-23T16:21:24;9;8;
73517;PMS5003;61766;60.318;25.044;2024-03-23T16:23:49;6;5;
73517;PMS5003;61766;60.318;25.044;2024-03-23T16:26:14;7;6;
73517;PMS5003;61766;60.318;25.044;2024-03-23T16:28:50;8;8;
73517;PMS5003;61766;60.318;25.044;2024-03-23T16:31:05;8;7;
73517;PMS5003;61766;60.318;25.044;2024-03-23T16:33:31;6;6;
73517;PMS5003;61766;60.318;25.044;2024-03-23T16:35:57;8;8;
73517;PMS5003;61766;60.318;25.044;2024-03-23T16:38:21;10;8;
73517;PMS5003;61766;60.318;25.044;2024-03-23T16:43:11;11;8;
73517;PMS5003;61766;60.318;25.044;2024-03-23T16:45:37;6;6;
73517;PMS5003;61766;60.318;25.044;2024-03-23T16:48:02;6;6;
73517;PMS5003;61766;60.318;25.044;2024-03-23T16:50:28;6;5;
73517;PMS5003;61766;60.318;25.044;2024-03-23T16:52:55;10;7;
73517;PMS5003;61766;60.318;25.044;2024-03-23T16:55:20;8;7;
73517;PMS5003;61766;60.318;25.044;2024-03-23T16:57:44;12;12;
73517;PMS5003;61766;60.318;25.044;2024-03-23T17:00:09;11;9;
73517;PMS5003;61766;60.318;25.044;2024-03-23T17:02:41;7;7;
73517;PMS5003;61766;60.318;25.044;2024-03-23T17:07:26;10;9;
73517;PMS5003;61766;60.318;25.044;2024-03-23T17:09:51;7;7;
73517;PMS5003;61766;60.318;25.044;2024-03-23T17:12:16;13;12;
73517;PMS5003;61766;60.318;25.044;2024-03-23T17:14:41;15;12;
73517;PMS5003;61766;60.318;25.044;2024-03-23T17:17:07;12;11;
73517;PMS5003;61766;60.318;25.044;2024-03-23T17:19:33;10;10;
73517;PMS5003;61766;60.318;25.044;2024-03-23T17:21:58;8;8;
73517;PMS5003;61766;60.318;25.044;2024-03-23T17:24:23;9;8;
73517;PMS5003;61766;60.318;25.044;2024-03-23T17:26:48;8;7;
73517;PMS5003;61766;60.318;25.044;2024-03-23T17:29:14;10;9;
73517;PMS5003;61766;60.318;25.044;2024-03-23T17:31:39;10;9;
73517;PMS5003;61766;60.318;25.044;2024-03-23T17:34:04;10;9;
73517;PMS5003;61766;60.318;25.044;2024-03-23T17:38:56;10;10;
73517;PMS5003;61766;60.318;25.044;2024-03-23T17:41:21;12;11;
73517;PMS5003;61766;60.318;25.044;2024-03-23T17:43:46;12;9;
73517;PMS5003;61766;60.318;25.044;2024-03-23T17:46:12;10;10;
73517;PMS5003;61766;60.318;25.044;2024-03-23T17:48:38;10;10;
73517;PMS5003;61766;60.318;25.044;2024-03-23T17:51:04;7;6;
73517;PMS5003;61766;60.318;25.044;2024-03-23T17:53:29;8;8;
73517;PMS5003;61766;60.318;25.044;2024-03-23T17:55:54;11;9;
73517;PMS5003;61766;60.318;25.044;2024-03-23T17:58:20;9;7;
73517;PMS5003;61766;60.318;25.044;2024-03-23T18:00:45;6;6;
73517;PMS5003;61766;60.318;25.044;2024-03-23T18:03:10;9;8;
73517;PMS5003;61766;60.318;25.044;2024-03-23T18:05:36;8;8;
73517;PMS5003;61766;60.318;25.044;2024-03-23T18:08:01;10;10;
73517;PMS5003;61766;60.318;25.044;2024-03-23T18:12:51;9;7;
73517;PMS5003;61766;60.318;25.044;2024-03-23T18:15:16;7;6;
73517;PMS5003;61766;60.318;25.044;2024-03-23T18:17:42;8;7;
73517;PMS5003;61766;60.318;25.044;2024-03-23T18:20:08;10;9;
73517;PMS5003;61766;60.318;25.044;2024-03-23T18:22:33;7;6;
73517;PMS5003;61766;60.318;25.044;2024-03-23T18:24:59;6;5;
73517;PMS5003;61766;60.318;25.044;2024-03-23T18:27:23;7;7;
73517;PMS5003;61766;60.318;25.044;2024-03-23T18:29:49;9;7;